sensor_id;sensor_type;location;lat;lon;timestamp;P1;durP1;ratioP1;P2;durP2;ratioP2
14688;SDS011;7432;48.728;9.154;2023-04-24T00:00:48;4.73;;;3.53;;
14688;SDS011;7432;48.728;9.154;2023-04-24T00:03:16;3.50;;;3.20;;
14688;SDS011;7432;48.728;9.154;2023-04-24T00:05:45;3.73;;;3.30;;
14688;SDS011;7432;48.728;9.154;2023-04-24T00:08:13;4.13;;;3.40;;
14688;SDS011;7432;48.728;9.154;2023-04-24T00:10:40;3.90;;;3.50;;
14688;SDS011;7432;48.728;9.154;2023-04-24T00:13:07;3.33;;;3.10;;
14688;SDS011;7432;48.728;9.154;2023-04-24T00:15:33;3.90;;;3.50;;
14688;SDS011;7432;48.728;9.154;2023-04-24T00:18:00;3.23;;;3.03;;
14688;SDS011;7432;48.728;9.154;2023-04-24T00:20:27;3.30;;;3.10;;
14688;SDS011;7432;48.728;9.154;2023-04-24T00:22:54;3.60;;;3.30;;
14688;SDS011;7432;48.728;9.154;2023-04-24T00:25:22;3.70;;;3.40;;
14688;SDS011;7432;48.728;9.154;2023-04-24T00:27:48;3.40;;;3.20;;
14688;SDS011;7432;48.728;9.154;2023-04-24T00:30:15;3.73;;;3.23;;
14688;SDS011;7432;48.728;9.154;2023-04-24T00:32:41;3.60;;;3.30;;
14688;SDS011;7432;48.728;9.154;2023-04-24T00:35:08;3.07;;;2.87;;
14688;SDS011;7432;48.728;9.154;2023-04-24T00:37:36;3.73;;;3.43;;
14688;SDS011;7432;48.728;9.154;2023-04-24T00:40:02;3.43;;;3.23;;
14688;SDS011;7432;48.728;9.154;2023-04-24T00:42:31;4.17;;;3.17;;
14688;SDS011;7432;48.728;9.154;2023-04-24T00:44:57;3.37;;;3.17;;
14688;SDS011;7432;48.728;9.154;2023-04-24T00:47:24;4.33;;;3.30;;
14688;SDS011;7432;48.728;9.154;2023-04-24T00:49:51;3.23;;;3.03;;
14688;SDS011;7432;48.728;9.154;2023-04-24T00:52:17;3.27;;;3.07;;
14688;SDS011;7432;48.728;9.154;2023-04-24T00:54:44;3.40;;;3.13;;
14688;SDS011;7432;48.728;9.154;2023-04-24T00:57:10;3.30;;;3.00;;
14688;SDS011;7432;48.728;9.154;2023-04-24T00:59:40;3.70;;;3.40;;
14688;SDS011;7432;48.728;9.154;2023-04-24T01:02:07;3.23;;;3.03;;
14688;SDS011;7432;48.728;9.154;2023-04-24T01:04:33;3.20;;;3.00;;
14688;SDS011;7432;48.728;9.154;2023-04-24T01:07:01;3.43;;;3.23;;
14688;SDS011;7432;48.728;9.154;2023-04-24T01:09:27;3.40;;;3.20;;
14688;SDS011;7432;48.728;9.154;2023-04-24T01:11:54;3.33;;;3.10;;
14688;SDS011;7432;48.728;9.154;2023-04-24T01:14:21;3.57;;;3.27;;
14688;SDS011;7432;48.728;9.154;2023-04-24T01:16:49;3.83;;;3.53;;
14688;SDS011;7432;48.728;9.154;2023-04-24T01:19:16;3.30;;;3.10;;
14688;SDS011;7432;48.728;9.154;2023-04-24T01:21:44;3.03;;;2.77;;
14688;SDS011;7432;48.728;9.154;2023-04-24T01:24:14;3.40;;;3.20;;
14688;SDS011;7432;48.728;9.154;2023-04-24T01:26:41;2.87;;;2.70;;
14688;SDS011;7432;48.728;9.154;2023-04-24T01:29:07;3.87;;;3.50;;
14688;SDS011;7432;48.728;9.154;2023-04-24T01:31:35;3.33;;;3.13;;
14688;SDS011;7432;48.728;9.154;2023-04-24T01:34:02;3.87;;;3.30;;
14688;SDS011;7432;48.728;9.154;2023-04-24T01:36:29;3.50;;;3.20;;
14688;SDS011;7432;48.728;9.154;2023-04-24T01:38:56;5.27;;;3.40;;
14688;SDS011;7432;48.728;9.154;2023-04-24T01:41:24;3.23;;;3.03;;
14688;SDS011;7432;48.728;9.154;2023-04-24T01:43:51;3.60;;;3.40;;
14688;SDS011;7432;48.728;9.154;2023-04-24T01:46:17;4.30;;;3.90;;
14688;SDS011;7432;48.728;9.154;2023-04-24T01:48:44;3.53;;;3.33;;
14688;SDS011;7432;48.728;9.154;2023-04-24T01:51:11;4.17;;;3.27;;
14688;SDS011;7432;48.728;9.154;2023-04-24T01:53:37;3.40;;;3.20;;
14688;SDS011;7432;48.728;9.154;2023-04-24T01:56:04;3.50;;;3.30;;
14688;SDS011;7432;48.728;9.154;2023-04-24T01:58:32;3.40;;;3.20;;
14688;SDS011;7432;48.728;9.154;2023-04-24T02:00:59;3.30;;;3.10;;
14688;SDS011;7432;48.728;9.154;2023-04-24T02:03:25;3.33;;;3.13;;
14688;SDS011;7432;48.728;9.154;2023-04-24T02:05:52;3.50;;;3.30;;
14688;SDS011;7432;48.728;9.154;2023-04-24T02:08:18;3.90;;;3.57;;
14688;SDS011;7432;48.728;9.154;2023-04-24T02:10:45;3.40;;;3.10;;
14688;SDS011;7432;48.728;9.154;2023-04-24T02:13:11;3.30;;;3.10;;
14688;SDS011;7432;48.728;9.154;2023-04-24T02:15:39;3.87;;;3.57;;
14688;SDS011;7432;48.728;9.154;2023-04-24T02:18:05;3.50;;;3.30;;
14688;SDS011;7432;48.728;9.154;2023-04-24T02:20:32;3.20;;;3.00;;
14688;SDS011;7432;48.728;9.154;2023-04-24T02:23:00;3.40;;;3.20;;
14688;SDS011;7432;48.728;9.154;2023-04-24T02:25:26;3.10;;;2.93;;
14688;SDS011;7432;48.728;9.154;2023-04-24T02:27:53;3.40;;;3.20;;
14688;SDS011;7432;48.728;9.154;2023-04-24T02:30:19;3.73;;;3.40;;
14688;SDS011;7432;48.728;9.154;2023-04-24T02:32:47;3.73;;;3.43;;
14688;SDS011;7432;48.728;9.154;2023-04-24T02:35:14;3.60;;;3.40;;
14688;SDS011;7432;48.728;9.154;2023-04-24T02:37:40;3.27;;;3.07;;
14688;SDS011;7432;48.728;9.154;2023-04-24T02:40:07;3.37;;;3.17;;
14688;SDS011;7432;48.728;9.154;2023-04-24T02:42:35;3.73;;;3.43;;
14688;SDS011;7432;48.728;9.154;2023-04-24T02:45:01;3.37;;;3.10;;
14688;SDS011;7432;48.728;9.154;2023-04-24T02:47:27;3.80;;;3.50;;
14688;SDS011;7432;48.728;9.154;2023-04-24T02:49:55;4.00;;;3.20;;
14688;SDS011;7432;48.728;9.154;2023-04-24T02:52:21;3.63;;;3.33;;
14688;SDS011;7432;48.728;9.154;2023-04-24T02:54:48;3.40;;;3.20;;
14688;SDS011;7432;48.728;9.154;2023-04-24T02:57:14;3.60;;;3.30;;
14688;SDS011;7432;48.728;9.154;2023-04-24T02:59:41;3.73;;;3.53;;
14688;SDS011;7432;48.728;9.154;2023-04-24T03:02:07;3.80;;;3.50;;
14688;SDS011;7432;48.728;9.154;2023-04-24T03:04:34;4.10;;;3.67;;
14688;SDS011;7432;48.728;9.154;2023-04-24T03:07:01;3.90;;;3.70;;
14688;SDS011;7432;48.728;9.154;2023-04-24T03:09:29;3.97;;;3.77;;
14688;SDS011;7432;48.728;9.154;2023-04-24T03:11:55;3.80;;;3.60;;
14688;SDS011;7432;48.728;9.154;2023-04-24T03:14:23;3.77;;;3.53;;
14688;SDS011;7432;48.728;9.154;2023-04-24T03:16:49;3.67;;;3.40;;
14688;SDS011;7432;48.728;9.154;2023-04-24T03:19:16;3.23;;;3.03;;
14688;SDS011;7432;48.728;9.154;2023-04-24T03:21:42;3.80;;;3.60;;
14688;SDS011;7432;48.728;9.154;2023-04-24T03:24:10;3.63;;;3.33;;
14688;SDS011;7432;48.728;9.154;2023-04-24T03:26:36;3.60;;;3.40;;
14688;SDS011;7432;48.728;9.154;2023-04-24T03:29:02;3.50;;;3.30;;
14688;SDS011;7432;48.728;9.154;2023-04-24T03:31:29;3.60;;;3.40;;
14688;SDS011;7432;48.728;9.154;2023-04-24T03:33:55;4.23;;;3.60;;
14688;SDS011;7432;48.728;9.154;2023-04-24T03:36:21;3.57;;;3.37;;
14688;SDS011;7432;48.728;9.154;2023-04-24T03:38:48;3.93;;;3.73;;
14688;SDS011;7432;48.728;9.154;2023-04-24T03:41:15;4.03;;;3.73;;
14688;SDS011;7432;48.728;9.154;2023-04-24T03:43:42;4.00;;;3.80;;
14688;SDS011;7432;48.728;9.154;2023-04-24T03:46:08;4.00;;;3.77;;
14688;SDS011;7432;48.728;9.154;2023-04-24T03:48:35;3.70;;;3.47;;
14688;SDS011;7432;48.728;9.154;2023-04-24T03:51:01;4.03;;;3.67;;
14688;SDS011;7432;48.728;9.154;2023-04-24T03:53:28;4.07;;;3.47;;
14688;SDS011;7432;48.728;9.154;2023-04-24T03:55:54;4.30;;;4.10;;
14688;SDS011;7432;48.728;9.154;2023-04-24T03:58:22;3.70;;;3.50;;
14688;SDS011;7432;48.728;9.154;2023-04-24T04:00:48;3.90;;;3.60;;
14688;SDS011;7432;48.728;9.154;2023-04-24T04:03:15;3.60;;;3.30;;
14688;SDS011;7432;48.728;9.154;2023-04-24T04:05:41;3.90;;;3.70;;
14688;SDS011;7432;48.728;9.154;2023-04-24T04:08:08;3.73;;;3.50;;
14688;SDS011;7432;48.728;9.154;2023-04-24T04:10:34;3.90;;;3.60;;
14688;SDS011;7432;48.728;9.154;2023-04-24T04:13:00;4.37;;;3.87;;
14688;SDS011;7432;48.728;9.154;2023-04-24T04:15:28;3.67;;;3.47;;
14688;SDS011;7432;48.728;9.154;2023-04-24T04:17:54;3.87;;;3.57;;
14688;SDS011;7432;48.728;9.154;2023-04-24T04:20:21;3.83;;;3.63;;
14688;SDS011;7432;48.728;9.154;2023-04-24T04:22:47;3.63;;;3.43;;
14688;SDS011;7432;48.728;9.154;2023-04-24T04:25:14;5.00;;;3.90;;
14688;SDS011;7432;48.728;9.154;2023-04-24T04:27:40;4.27;;;3.90;;
14688;SDS011;7432;48.728;9.154;2023-04-24T04:30:07;3.80;;;3.50;;
14688;SDS011;7432;48.728;9.154;2023-04-24T04:32:36;4.03;;;3.70;;
14688;SDS011;7432;48.728;9.154;2023-04-24T04:35:02;4.10;;;3.80;;
14688;SDS011;7432;48.728;9.154;2023-04-24T04:37:29;4.33;;;3.90;;
14688;SDS011;7432;48.728;9.154;2023-04-24T04:39:56;4.20;;;4.00;;
14688;SDS011;7432;48.728;9.154;2023-04-24T04:42:23;5.63;;;4.30;;
14688;SDS011;7432;48.728;9.154;2023-04-24T04:44:49;4.60;;;4.30;;
14688;SDS011;7432;48.728;9.154;2023-04-24T04:47:16;4.47;;;4.20;;
14688;SDS011;7432;48.728;9.154;2023-04-24T04:49:44;4.13;;;3.83;;
14688;SDS011;7432;48.728;9.154;2023-04-24T04:52:10;4.47;;;4.10;;
14688;SDS011;7432;48.728;9.154;2023-04-24T04:54:37;4.40;;;4.10;;
14688;SDS011;7432;48.728;9.154;2023-04-24T04:57:03;4.40;;;4.10;;
14688;SDS011;7432;48.728;9.154;2023-04-24T04:59:29;4.67;;;4.27;;
14688;SDS011;7432;48.728;9.154;2023-04-24T05:01:56;4.80;;;4.50;;
14688;SDS011;7432;48.728;9.154;2023-04-24T05:04:22;4.30;;;4.03;;
14688;SDS011;7432;48.728;9.154;2023-04-24T05:06:50;5.13;;;4.20;;
14688;SDS011;7432;48.728;9.154;2023-04-24T05:09:17;4.17;;;3.97;;
14688;SDS011;7432;48.728;9.154;2023-04-24T05:11:43;4.40;;;4.00;;
14688;SDS011;7432;48.728;9.154;2023-04-24T05:14:09;4.20;;;4.00;;
14688;SDS011;7432;48.728;9.154;2023-04-24T05:16:37;3.50;;;3.30;;
14688;SDS011;7432;48.728;9.154;2023-04-24T05:19:04;4.30;;;3.90;;
14688;SDS011;7432;48.728;9.154;2023-04-24T05:21:30;4.30;;;3.90;;
14688;SDS011;7432;48.728;9.154;2023-04-24T05:23:58;3.90;;;3.70;;
14688;SDS011;7432;48.728;9.154;2023-04-24T05:26:24;4.10;;;3.80;;
14688;SDS011;7432;48.728;9.154;2023-04-24T05:28:51;3.70;;;3.40;;
14688;SDS011;7432;48.728;9.154;2023-04-24T05:31:17;4.40;;;4.00;;
14688;SDS011;7432;48.728;9.154;2023-04-24T05:33:44;4.77;;;3.83;;
14688;SDS011;7432;48.728;9.154;2023-04-24T05:36:10;3.77;;;3.47;;
14688;SDS011;7432;48.728;9.154;2023-04-24T05:38:36;4.13;;;3.93;;
14688;SDS011;7432;48.728;9.154;2023-04-24T05:41:04;4.97;;;4.40;;
14688;SDS011;7432;48.728;9.154;2023-04-24T05:43:31;4.67;;;4.00;;
14688;SDS011;7432;48.728;9.154;2023-04-24T05:45:57;6.30;;;5.10;;
14688;SDS011;7432;48.728;9.154;2023-04-24T05:48:23;4.23;;;4.00;;
14688;SDS011;7432;48.728;9.154;2023-04-24T05:50:50;4.17;;;3.87;;
14688;SDS011;7432;48.728;9.154;2023-04-24T05:53:17;3.80;;;3.60;;
14688;SDS011;7432;48.728;9.154;2023-04-24T05:55:43;4.70;;;3.60;;
14688;SDS011;7432;48.728;9.154;2023-04-24T05:58:11;4.40;;;4.10;;
14688;SDS011;7432;48.728;9.154;2023-04-24T06:00:38;3.77;;;3.50;;
14688;SDS011;7432;48.728;9.154;2023-04-24T06:03:07;4.20;;;3.90;;
14688;SDS011;7432;48.728;9.154;2023-04-24T06:05:34;4.70;;;4.40;;
14688;SDS011;7432;48.728;9.154;2023-04-24T06:08:00;4.97;;;4.57;;
14688;SDS011;7432;48.728;9.154;2023-04-24T06:10:27;5.07;;;4.77;;
14688;SDS011;7432;48.728;9.154;2023-04-24T06:12:53;4.80;;;4.50;;
14688;SDS011;7432;48.728;9.154;2023-04-24T06:15:22;4.40;;;4.10;;
14688;SDS011;7432;48.728;9.154;2023-04-24T06:17:48;5.03;;;4.53;;
14688;SDS011;7432;48.728;9.154;2023-04-24T06:20:15;5.00;;;4.60;;
14688;SDS011;7432;48.728;9.154;2023-04-24T06:22:41;4.70;;;4.20;;
14688;SDS011;7432;48.728;9.154;2023-04-24T06:25:08;4.73;;;4.33;;
14688;SDS011;7432;48.728;9.154;2023-04-24T06:27:35;5.17;;;4.87;;
14688;SDS011;7432;48.728;9.154;2023-04-24T06:30:01;4.73;;;4.50;;
14688;SDS011;7432;48.728;9.154;2023-04-24T06:32:29;6.17;;;5.77;;
14688;SDS011;7432;48.728;9.154;2023-04-24T06:34:56;6.43;;;6.03;;
14688;SDS011;7432;48.728;9.154;2023-04-24T06:37:22;6.00;;;5.60;;
14688;SDS011;7432;48.728;9.154;2023-04-24T06:39:49;5.90;;;5.60;;
14688;SDS011;7432;48.728;9.154;2023-04-24T06:42:15;5.72;;;5.43;;
14688;SDS011;7432;48.728;9.154;2023-04-24T06:44:41;6.30;;;6.00;;
14688;SDS011;7432;48.728;9.154;2023-04-24T06:47:08;5.40;;;5.10;;
14688;SDS011;7432;48.728;9.154;2023-04-24T06:49:36;6.90;;;6.43;;
14688;SDS011;7432;48.728;9.154;2023-04-24T06:52:03;6.43;;;6.03;;
14688;SDS011;7432;48.728;9.154;2023-04-24T06:54:30;6.22;;;5.90;;
14688;SDS011;7432;48.728;9.154;2023-04-24T06:56:57;6.55;;;6.15;;
14688;SDS011;7432;48.728;9.154;2023-04-24T06:59:24;6.57;;;6.18;;
14688;SDS011;7432;48.728;9.154;2023-04-24T07:01:50;6.60;;;6.20;;
14688;SDS011;7432;48.728;9.154;2023-04-24T07:04:17;6.47;;;6.05;;
14688;SDS011;7432;48.728;9.154;2023-04-24T07:06:45;6.50;;;6.10;;
14688;SDS011;7432;48.728;9.154;2023-04-24T07:09:11;7.45;;;6.95;;
14688;SDS011;7432;48.728;9.154;2023-04-24T07:11:39;6.25;;;5.93;;
14688;SDS011;7432;48.728;9.154;2023-04-24T07:14:06;6.20;;;5.72;;
14688;SDS011;7432;48.728;9.154;2023-04-24T07:16:33;6.93;;;6.53;;
14688;SDS011;7432;48.728;9.154;2023-04-24T07:18:59;7.00;;;6.60;;
14688;SDS011;7432;48.728;9.154;2023-04-24T07:21:26;6.80;;;6.40;;
14688;SDS011;7432;48.728;9.154;2023-04-24T07:23:54;6.80;;;6.37;;
14688;SDS011;7432;48.728;9.154;2023-04-24T07:26:20;5.40;;;5.10;;
14688;SDS011;7432;48.728;9.154;2023-04-24T07:28:47;6.37;;;5.87;;
14688;SDS011;7432;48.728;9.154;2023-04-24T07:31:13;6.27;;;5.63;;
14688;SDS011;7432;48.728;9.154;2023-04-24T07:33:40;6.00;;;5.70;;
14688;SDS011;7432;48.728;9.154;2023-04-24T07:36:06;6.10;;;5.70;;
14688;SDS011;7432;48.728;9.154;2023-04-24T07:38:33;4.93;;;4.63;;
14688;SDS011;7432;48.728;9.154;2023-04-24T07:41:00;6.37;;;5.97;;
14688;SDS011;7432;48.728;9.154;2023-04-24T07:43:27;5.83;;;5.53;;
14688;SDS011;7432;48.728;9.154;2023-04-24T07:45:53;5.53;;;5.10;;
14688;SDS011;7432;48.728;9.154;2023-04-24T07:48:20;5.60;;;5.20;;
14688;SDS011;7432;48.728;9.154;2023-04-24T07:50:47;5.80;;;5.50;;
14688;SDS011;7432;48.728;9.154;2023-04-24T07:53:13;6.87;;;6.27;;
14688;SDS011;7432;48.728;9.154;2023-04-24T07:55:40;6.67;;;5.97;;
14688;SDS011;7432;48.728;9.154;2023-04-24T07:58:07;6.80;;;6.40;;
14688;SDS011;7432;48.728;9.154;2023-04-24T08:00:34;6.87;;;6.30;;
14688;SDS011;7432;48.728;9.154;2023-04-24T08:03:00;6.20;;;5.70;;
14688;SDS011;7432;48.728;9.154;2023-04-24T08:05:27;5.67;;;5.37;;
14688;SDS011;7432;48.728;9.154;2023-04-24T08:07:54;6.77;;;6.30;;
14688;SDS011;7432;48.728;9.154;2023-04-24T08:10:20;5.90;;;5.50;;
14688;SDS011;7432;48.728;9.154;2023-04-24T08:12:47;6.90;;;6.50;;
14688;SDS011;7432;48.728;9.154;2023-04-24T08:15:15;5.60;;;5.10;;
14688;SDS011;7432;48.728;9.154;2023-04-24T08:17:41;5.80;;;5.50;;
14688;SDS011;7432;48.728;9.154;2023-04-24T08:20:08;6.47;;;6.00;;
14688;SDS011;7432;48.728;9.154;2023-04-24T08:22:38;6.40;;;6.00;;
14688;SDS011;7432;48.728;9.154;2023-04-24T08:25:05;6.17;;;5.77;;
14688;SDS011;7432;48.728;9.154;2023-04-24T08:27:32;5.47;;;5.07;;
14688;SDS011;7432;48.728;9.154;2023-04-24T08:29:58;5.87;;;5.53;;
14688;SDS011;7432;48.728;9.154;2023-04-24T08:32:26;5.80;;;5.30;;
14688;SDS011;7432;48.728;9.154;2023-04-24T08:34:53;5.90;;;5.43;;
14688;SDS011;7432;48.728;9.154;2023-04-24T08:37:21;5.77;;;5.47;;
14688;SDS011;7432;48.728;9.154;2023-04-24T08:39:48;6.55;;;5.95;;
14688;SDS011;7432;48.728;9.154;2023-04-24T08:42:15;5.73;;;5.43;;
14688;SDS011;7432;48.728;9.154;2023-04-24T08:44:42;6.50;;;6.10;;
14688;SDS011;7432;48.728;9.154;2023-04-24T08:47:09;6.68;;;6.18;;
14688;SDS011;7432;48.728;9.154;2023-04-24T08:49:38;5.70;;;5.40;;
14688;SDS011;7432;48.728;9.154;2023-04-24T08:52:04;6.15;;;5.65;;
14688;SDS011;7432;48.728;9.154;2023-04-24T08:54:32;5.38;;;5.03;;
14688;SDS011;7432;48.728;9.154;2023-04-24T08:57:00;6.63;;;6.22;;
14688;SDS011;7432;48.728;9.154;2023-04-24T08:59:28;6.78;;;6.28;;
14688;SDS011;7432;48.728;9.154;2023-04-24T09:01:55;7.70;;;7.00;;
14688;SDS011;7432;48.728;9.154;2023-04-24T09:04:22;5.82;;;5.53;;
14688;SDS011;7432;48.728;9.154;2023-04-24T09:06:51;6.40;;;5.88;;
14688;SDS011;7432;48.728;9.154;2023-04-24T09:09:21;7.22;;;6.63;;
14688;SDS011;7432;48.728;9.154;2023-04-24T09:11:48;5.95;;;5.65;;
14688;SDS011;7432;48.728;9.154;2023-04-24T09:14:15;7.00;;;6.50;;
14688;SDS011;7432;48.728;9.154;2023-04-24T09:16:42;7.10;;;6.70;;
14688;SDS011;7432;48.728;9.154;2023-04-24T09:19:08;9.80;;;8.75;;
14688;SDS011;7432;48.728;9.154;2023-04-24T09:21:35;6.50;;;6.10;;
14688;SDS011;7432;48.728;9.154;2023-04-24T09:24:04;7.78;;;7.18;;
14688;SDS011;7432;48.728;9.154;2023-04-24T09:26:31;8.63;;;6.87;;
14688;SDS011;7432;48.728;9.154;2023-04-24T09:28:58;7.17;;;6.57;;
14688;SDS011;7432;48.728;9.154;2023-04-24T09:31:26;7.07;;;6.47;;
14688;SDS011;7432;48.728;9.154;2023-04-24T09:33:54;7.10;;;6.70;;
14688;SDS011;7432;48.728;9.154;2023-04-24T09:36:27;7.23;;;6.60;;
14688;SDS011;7432;48.728;9.154;2023-04-24T09:38:57;7.10;;;6.50;;
14688;SDS011;7432;48.728;9.154;2023-04-24T09:41:25;6.45;;;6.05;;
14688;SDS011;7432;48.728;9.154;2023-04-24T09:43:53;6.38;;;6.03;;
14688;SDS011;7432;48.728;9.154;2023-04-24T09:46:20;6.55;;;5.95;;
14688;SDS011;7432;48.728;9.154;2023-04-24T09:48:47;9.50;;;8.70;;
14688;SDS011;7432;48.728;9.154;2023-04-24T09:51:13;7.97;;;7.47;;
14688;SDS011;7432;48.728;9.154;2023-04-24T09:53:44;7.18;;;6.75;;
14688;SDS011;7432;48.728;9.154;2023-04-24T09:56:11;6.80;;;6.30;;
14688;SDS011;7432;48.728;9.154;2023-04-24T09:58:39;7.33;;;6.83;;
14688;SDS011;7432;48.728;9.154;2023-04-24T10:01:07;6.40;;;5.90;;
14688;SDS011;7432;48.728;9.154;2023-04-24T10:03:33;6.40;;;6.00;;
14688;SDS011;7432;48.728;9.154;2023-04-24T10:06:01;5.50;;;5.20;;
14688;SDS011;7432;48.728;9.154;2023-04-24T10:08:33;5.87;;;5.57;;
14688;SDS011;7432;48.728;9.154;2023-04-24T10:11:01;6.43;;;5.83;;
14688;SDS011;7432;48.728;9.154;2023-04-24T10:13:27;5.80;;;5.50;;
14688;SDS011;7432;48.728;9.154;2023-04-24T10:15:55;6.35;;;6.05;;
14688;SDS011;7432;48.728;9.154;2023-04-24T10:18:22;5.90;;;5.50;;
14688;SDS011;7432;48.728;9.154;2023-04-24T10:20:51;6.50;;;6.10;;
14688;SDS011;7432;48.728;9.154;2023-04-24T10:23:19;5.57;;;5.28;;
14688;SDS011;7432;48.728;9.154;2023-04-24T10:25:46;6.93;;;6.45;;
14688;SDS011;7432;48.728;9.154;2023-04-24T10:28:14;5.90;;;5.60;;
14688;SDS011;7432;48.728;9.154;2023-04-24T10:30:42;6.25;;;5.68;;
14688;SDS011;7432;48.728;9.154;2023-04-24T10:33:10;5.45;;;5.15;;
14688;SDS011;7432;48.728;9.154;2023-04-24T10:35:40;5.93;;;5.53;;
14688;SDS011;7432;48.728;9.154;2023-04-24T10:38:09;5.97;;;5.68;;
14688;SDS011;7432;48.728;9.154;2023-04-24T10:40:38;6.45;;;5.93;;
14688;SDS011;7432;48.728;9.154;2023-04-24T10:43:04;6.85;;;6.35;;
14688;SDS011;7432;48.728;9.154;2023-04-24T10:45:33;5.55;;;5.25;;
14688;SDS011;7432;48.728;9.154;2023-04-24T10:48:01;6.40;;;6.10;;
14688;SDS011;7432;48.728;9.154;2023-04-24T10:50:30;6.70;;;6.20;;
14688;SDS011;7432;48.728;9.154;2023-04-24T10:53:11;6.77;;;6.47;;
14688;SDS011;7432;48.728;9.154;2023-04-24T10:55:39;6.50;;;6.10;;
14688;SDS011;7432;48.728;9.154;2023-04-24T10:58:08;6.63;;;6.23;;
14688;SDS011;7432;48.728;9.154;2023-04-24T11:00:36;6.07;;;5.77;;
14688;SDS011;7432;48.728;9.154;2023-04-24T11:03:04;6.17;;;5.80;;
14688;SDS011;7432;48.728;9.154;2023-04-24T11:05:49;6.93;;;6.40;;
14688;SDS011;7432;48.728;9.154;2023-04-24T11:08:22;6.93;;;6.40;;
14688;SDS011;7432;48.728;9.154;2023-04-24T11:10:54;7.20;;;6.80;;
14688;SDS011;7432;48.728;9.154;2023-04-24T11:13:22;6.60;;;6.20;;
14688;SDS011;7432;48.728;9.154;2023-04-24T11:18:49;6.50;;;6.10;;
14688;SDS011;7432;48.728;9.154;2023-04-24T11:21:21;7.10;;;6.60;;
14688;SDS011;7432;48.728;9.154;2023-04-24T11:23:48;6.53;;;6.23;;
14688;SDS011;7432;48.728;9.154;2023-04-24T11:26:17;6.53;;;6.13;;
14688;SDS011;7432;48.728;9.154;2023-04-24T11:28:48;5.80;;;5.50;;
14688;SDS011;7432;48.728;9.154;2023-04-24T11:34:05;6.77;;;6.27;;
14688;SDS011;7432;48.728;9.154;2023-04-24T11:36:34;6.47;;;5.97;;
14688;SDS011;7432;48.728;9.154;2023-04-24T11:39:01;6.90;;;6.43;;
14688;SDS011;7432;48.728;9.154;2023-04-24T11:41:28;6.63;;;6.20;;
14688;SDS011;7432;48.728;9.154;2023-04-24T11:43:55;5.97;;;5.57;;
14688;SDS011;7432;48.728;9.154;2023-04-24T11:46:22;6.13;;;5.60;;
14688;SDS011;7432;48.728;9.154;2023-04-24T11:48:49;6.30;;;5.80;;
14688;SDS011;7432;48.728;9.154;2023-04-24T11:51:15;6.00;;;5.70;;
14688;SDS011;7432;48.728;9.154;2023-04-24T11:53:43;6.27;;;5.87;;
14688;SDS011;7432;48.728;9.154;2023-04-24T11:56:09;6.60;;;6.20;;
14688;SDS011;7432;48.728;9.154;2023-04-24T11:58:36;6.10;;;5.80;;
14688;SDS011;7432;48.728;9.154;2023-04-24T12:01:03;6.07;;;5.67;;
14688;SDS011;7432;48.728;9.154;2023-04-24T12:03:30;6.47;;;6.07;;
14688;SDS011;7432;48.728;9.154;2023-04-24T12:06:04;6.50;;;6.00;;
14688;SDS011;7432;48.728;9.154;2023-04-24T12:08:32;6.50;;;6.10;;
14688;SDS011;7432;48.728;9.154;2023-04-24T12:11:01;6.90;;;6.60;;
14688;SDS011;7432;48.728;9.154;2023-04-24T12:13:28;6.67;;;6.27;;
14688;SDS011;7432;48.728;9.154;2023-04-24T12:15:56;7.20;;;6.80;;
14688;SDS011;7432;48.728;9.154;2023-04-24T12:18:23;6.23;;;5.93;;
14688;SDS011;7432;48.728;9.154;2023-04-24T12:20:49;6.83;;;6.43;;
14688;SDS011;7432;48.728;9.154;2023-04-24T12:23:16;6.63;;;6.23;;
14688;SDS011;7432;48.728;9.154;2023-04-24T12:25:44;6.20;;;5.90;;
14688;SDS011;7432;48.728;9.154;2023-04-24T12:28:12;6.53;;;6.13;;
14688;SDS011;7432;48.728;9.154;2023-04-24T12:30:39;7.20;;;6.60;;
14688;SDS011;7432;48.728;9.154;2023-04-24T12:33:07;7.13;;;6.63;;
14688;SDS011;7432;48.728;9.154;2023-04-24T12:35:34;7.10;;;6.50;;
14688;SDS011;7432;48.728;9.154;2023-04-24T12:38:07;6.40;;;5.90;;
14688;SDS011;7432;48.728;9.154;2023-04-24T12:40:34;6.80;;;6.40;;
14688;SDS011;7432;48.728;9.154;2023-04-24T12:43:00;6.60;;;6.10;;
14688;SDS011;7432;48.728;9.154;2023-04-24T12:45:28;6.10;;;5.80;;
14688;SDS011;7432;48.728;9.154;2023-04-24T12:47:54;6.07;;;5.67;;
14688;SDS011;7432;48.728;9.154;2023-04-24T12:50:21;6.40;;;6.10;;
14688;SDS011;7432;48.728;9.154;2023-04-24T12:52:47;6.90;;;6.50;;
14688;SDS011;7432;48.728;9.154;2023-04-24T12:55:13;6.33;;;6.03;;
14688;SDS011;7432;48.728;9.154;2023-04-24T12:57:40;6.40;;;6.10;;
14688;SDS011;7432;48.728;9.154;2023-04-24T13:00:07;6.03;;;5.63;;
14688;SDS011;7432;48.728;9.154;2023-04-24T13:02:35;6.70;;;6.40;;
14688;SDS011;7432;48.728;9.154;2023-04-24T13:05:02;6.57;;;6.17;;
14688;SDS011;7432;48.728;9.154;2023-04-24T13:07:29;5.60;;;5.27;;
14688;SDS011;7432;48.728;9.154;2023-04-24T13:09:55;5.83;;;5.53;;
14688;SDS011;7432;48.728;9.154;2023-04-24T13:12:22;6.87;;;6.47;;
14688;SDS011;7432;48.728;9.154;2023-04-24T13:14:50;6.40;;;5.90;;
14688;SDS011;7432;48.728;9.154;2023-04-24T13:17:16;6.73;;;6.43;;
14688;SDS011;7432;48.728;9.154;2023-04-24T13:19:44;6.50;;;6.10;;
14688;SDS011;7432;48.728;9.154;2023-04-24T13:22:11;5.90;;;5.60;;
14688;SDS011;7432;48.728;9.154;2023-04-24T13:24:38;6.00;;;5.70;;
14688;SDS011;7432;48.728;9.154;2023-04-24T13:27:06;6.67;;;6.07;;
14688;SDS011;7432;48.728;9.154;2023-04-24T13:29:33;6.23;;;5.90;;
14688;SDS011;7432;48.728;9.154;2023-04-24T13:31:59;6.23;;;5.90;;
14688;SDS011;7432;48.728;9.154;2023-04-24T13:34:26;6.00;;;5.60;;
14688;SDS011;7432;48.728;9.154;2023-04-24T13:36:55;6.17;;;5.87;;
14688;SDS011;7432;48.728;9.154;2023-04-24T13:39:23;6.17;;;5.87;;
14688;SDS011;7432;48.728;9.154;2023-04-24T13:41:50;6.40;;;6.00;;
14688;SDS011;7432;48.728;9.154;2023-04-24T13:44:17;6.37;;;6.03;;
14688;SDS011;7432;48.728;9.154;2023-04-24T13:46:44;6.80;;;6.40;;
14688;SDS011;7432;48.728;9.154;2023-04-24T13:49:12;6.20;;;5.90;;
14688;SDS011;7432;48.728;9.154;2023-04-24T13:51:39;5.73;;;5.43;;
14688;SDS011;7432;48.728;9.154;2023-04-24T13:54:08;6.00;;;5.70;;
14688;SDS011;7432;48.728;9.154;2023-04-24T13:56:34;5.20;;;4.90;;
14688;SDS011;7432;48.728;9.154;2023-04-24T13:59:01;5.30;;;5.00;;
14688;SDS011;7432;48.728;9.154;2023-04-24T14:01:27;5.90;;;5.50;;
14688;SDS011;7432;48.728;9.154;2023-04-24T14:03:54;6.23;;;5.73;;
14688;SDS011;7432;48.728;9.154;2023-04-24T14:06:21;5.67;;;5.37;;
14688;SDS011;7432;48.728;9.154;2023-04-24T14:08:49;5.90;;;5.50;;
14688;SDS011;7432;48.728;9.154;2023-04-24T14:11:17;5.47;;;5.17;;
14688;SDS011;7432;48.728;9.154;2023-04-24T14:13:45;5.77;;;5.47;;
14688;SDS011;7432;48.728;9.154;2023-04-24T14:16:11;5.73;;;5.43;;
14688;SDS011;7432;48.728;9.154;2023-04-24T14:18:39;5.77;;;5.37;;
14688;SDS011;7432;48.728;9.154;2023-04-24T14:21:05;6.30;;;5.70;;
14688;SDS011;7432;48.728;9.154;2023-04-24T14:23:32;5.17;;;4.87;;
14688;SDS011;7432;48.728;9.154;2023-04-24T14:25:59;5.43;;;5.03;;
14688;SDS011;7432;48.728;9.154;2023-04-24T14:28:27;5.50;;;5.10;;
14688;SDS011;7432;48.728;9.154;2023-04-24T14:30:53;6.00;;;5.60;;
14688;SDS011;7432;48.728;9.154;2023-04-24T14:33:19;5.87;;;5.57;;
14688;SDS011;7432;48.728;9.154;2023-04-24T14:35:46;5.97;;;5.53;;
14688;SDS011;7432;48.728;9.154;2023-04-24T14:38:12;5.47;;;5.07;;
14688;SDS011;7432;48.728;9.154;2023-04-24T14:40:39;5.40;;;5.00;;
14688;SDS011;7432;48.728;9.154;2023-04-24T14:43:06;5.40;;;5.10;;
14688;SDS011;7432;48.728;9.154;2023-04-24T14:45:33;5.83;;;5.43;;
14688;SDS011;7432;48.728;9.154;2023-04-24T14:48:00;6.07;;;5.50;;
14688;SDS011;7432;48.728;9.154;2023-04-24T14:50:26;6.30;;;5.80;;
14688;SDS011;7432;48.728;9.154;2023-04-24T14:52:53;6.80;;;6.20;;
14688;SDS011;7432;48.728;9.154;2023-04-24T14:55:19;6.10;;;5.63;;
14688;SDS011;7432;48.728;9.154;2023-04-24T14:57:45;5.77;;;5.37;;
14688;SDS011;7432;48.728;9.154;2023-04-24T15:00:13;6.33;;;5.83;;
14688;SDS011;7432;48.728;9.154;2023-04-24T15:02:43;6.37;;;5.97;;
14688;SDS011;7432;48.728;9.154;2023-04-24T15:05:09;6.40;;;5.90;;